Bookmark and Share
Track history (hours):
 

Greta

More information available from US FCC via Universal Licensing System and Coast Guard Vessel Documentation Center.

Last reported at 2014-Apr-23 08:33 UTC. Time now 2014-Apr-24 11:11 UTC.
Position N 54°16' W 131°04'.

Length 44 m; draft 2 m.

Type: Ship. MMSI: 367438220.

NotesDate/timePositionNaut miles runAvg speedWind from/ knotsBaromVisibWave heightAir tempDewpointWater temp
2014-Apr-23 08:33N 54°16' W 131°04'196 5.6
2014-Apr-21 21:25N 51°30' W 128°12'5 4.6
2014-Apr-21 20:17N 51°26' W 128°06'4 4.7
2014-Apr-21 19:30N 51°24' W 128°02'5 4.8
2014-Apr-21 18:26N 51°20' W 127°57'5 5.2
2014-Apr-21 17:31N 51°16' W 127°54'5 5.3
2014-Apr-21 16:33N 51°11' W 127°51'6 6.0
2014-Apr-21 15:33N 51°06' W 127°45'6 6.1
2014-Apr-21 14:33N 51°02' W 127°38'6 6.1
2014-Apr-21 13:33N 50°58' W 127°31'6 5.8
2014-Apr-21 12:33N 50°55' W 127°23'6 6.1
2014-Apr-21 11:31N 50°51' W 127°15'6 6.7
2014-Apr-21 10:33N 50°48' W 127°06'7 6.5
2014-Apr-21 09:33N 50°44' W 126°58'7 6.4
2014-Apr-21 08:23N 50°39' W 126°49'8 7.0
2014-Apr-21 07:18N 50°33' W 126°41'5 7.0
2014-Apr-21 06:31N 50°30' W 126°34'7 7.2
2014-Apr-21 05:33N 50°30' W 126°23'41 5.0
2014-Apr-20 21:26N 50°15' W 125°23'8 8.8
2014-Apr-20 20:32N 50°07' W 125°21'8 7.4
2014-Apr-20 19:27N 50°01' W 125°13'5 5.4
2014-Apr-20 18:32N 49°57' W 125°08'5 4.9
2014-Apr-20 17:29N 49°54' W 125°02'5 4.8
2014-Apr-20 16:32N 49°51' W 124°56'5 5.2
2014-Apr-20 15:33N 49°48' W 124°50'7 6.7
2014-Apr-20 14:33N 49°44' W 124°42'7 6.8
2014-Apr-20 13:33N 49°40' W 124°33'6 6.5
2014-Apr-20 12:33N 49°36' W 124°26'6 6.0
2014-Apr-20 11:33N 49°33' W 124°18'6 5.9
2014-Apr-20 10:33N 49°30' W 124°10'6 6.3
2014-Apr-20 09:33N 49°25' W 124°03'6 5.7
2014-Apr-20 08:34N 49°22' W 123°56'6 5.8
2014-Apr-20 07:33N 49°18' W 123°49'6 5.8
2014-Apr-20 06:33N 49°15' W 123°42'6 5.8
2014-Apr-20 05:33N 49°11' W 123°35'6 5.8
2014-Apr-20 04:33N 49°08' W 123°27'6 5.6
2014-Apr-20 03:33N 49°04' W 123°21'7 6.7
2014-Apr-20 02:34N 49°00' W 123°13'7 7.2
2014-Apr-20 01:33N 48°55' W 123°05'7 6.9
2014-Apr-20 00:33N 48°51' W 122°57'7 6.8
2014-Apr-19 23:33N 48°46' W 122°49'7 6.6
2014-Apr-19 22:33N 48°41' W 122°43'5 4.8
2014-Apr-19 21:33N 48°37' W 122°45'4 3.8
2014-Apr-19 20:33N 48°33' W 122°45'3 3.4
2014-Apr-19 19:33N 48°29' W 122°44'3 3.3
2014-Apr-19 18:33N 48°26' W 122°44'5 4.7
2014-Apr-19 17:33N 48°21' W 122°45'5 5.2
2014-Apr-19 16:33N 48°16' W 122°47'12 5.7
2014-Apr-19 14:30N 48°06' W 122°39'6 6.1
2014-Apr-19 13:30N 48°00' W 122°36'6 5.9
2014-Apr-19 12:34N 47°56' W 122°30'1 5.7
2014-Apr-19 12:21N 47°56' W 122°29'5 6.1
2014-Apr-19 11:33N 47°51' W 122°27'0 6.1
2014-Apr-19 11:31N 47°51' W 122°27'6 6.5
2014-Apr-19 10:33N 47°44' W 122°26'0 5.9
2014-Apr-19 10:31N 47°44' W 122°26'6 6.2
2014-Apr-19 09:33N 47°38' W 122°27'0 5.8
2014-Apr-19 09:31N 47°38' W 122°26'4 3.9
2014-Apr-19 08:33N 47°35' W 122°23'0 0.0
2014-Apr-19 08:31N 47°35' W 122°23'0 0.0
2014-Apr-19 07:33N 47°35' W 122°23'0 0.0
2014-Apr-19 07:31N 47°35' W 122°23'0 0.0
2014-Apr-19 06:33N 47°35' W 122°23'0 0.2
2014-Apr-19 06:31N 47°35' W 122°23'1 1.4
2014-Apr-19 05:51N 47°35' W 122°21'0 0.0
2014-Apr-19 05:33N 47°35' W 122°21'0 0.0
2014-Apr-19 04:33N 47°35' W 122°21'0 0.0
2014-Apr-19 04:31N 47°35' W 122°21'0 0.0
2014-Apr-19 03:33N 47°35' W 122°21'0 0.0
2014-Apr-19 03:31N 47°35' W 122°21'0 0.0
2014-Apr-19 02:33N 47°35' W 122°21'0 0.0
2014-Apr-19 02:30N 47°35' W 122°21'1 1.2
2014-Apr-19 01:33N 47°34' W 122°21'0 5.9
2014-Apr-19 01:30N 47°34' W 122°21'1 1.1
2014-Apr-19 00:33N 47°33' W 122°20'0 0.0
2014-Apr-19 00:30N 47°33' W 122°20'0 0.0
2014-Apr-18 23:33N 47°33' W 122°20'0 0.0
2014-Apr-18 23:30N 47°33' W 122°20'0 0.0
2014-Apr-18 22:33N 47°33' W 122°20'0 0.0
2014-Apr-18 22:30N 47°33' W 122°20'0 0.0
2014-Apr-18 21:33N 47°33' W 122°20'0 0.0
2014-Apr-18 21:30N 47°33' W 122°20'0 0.0
2014-Apr-18 20:34N 47°33' W 122°20'0 0.0
2014-Apr-18 20:30N 47°33' W 122°20'0 0.0
2014-Apr-18 19:33N 47°33' W 122°20'0 0.0
2014-Apr-18 19:30N 47°33' W 122°20'0 0.0
2014-Apr-18 18:33N 47°33' W 122°20'0 0.0
2014-Apr-18 18:29N 47°33' W 122°20'0 0.0
2014-Apr-18 17:33N 47°33' W 122°20'0 0.0
2014-Apr-18 17:30N 47°33' W 122°20'0 0.1
2014-Apr-18 16:34N 47°33' W 122°20'0 5.3
2014-Apr-18 16:29N 47°33' W 122°20'0 0.0
2014-Apr-16 20:18N 47°33' W 122°20'0 0.0
2014-Apr-16 20:18N 47°33' W 122°20'1 1.8
2014-Apr-16 19:33N 47°34' W 122°21'2 2.4
2014-Apr-16 18:34N 47°36' W 122°22'0 0.0
2014-Apr-16 18:33N 47°36' W 122°22'4 0.1
2014-Apr-14 18:40N 47°33' W 122°20'0 0.0
2014-Apr-14 18:31N 47°33' W 122°20'0 0.0
2014-Apr-14 17:33N 47°33' W 122°20'0 0.1
2014-Apr-14 17:31N 47°33' W 122°20'0 0.0
2014-Apr-14 16:33N 47°33' W 122°20'0 0.0
2014-Apr-14 15:32N 47°33' W 122°20'0 0.0
2014-Apr-14 14:33N 47°33' W 122°20'0 0.0
2014-Apr-14 14:16N 47°33' W 122°20'0 0.0
2014-Apr-14 13:34N 47°33' W 122°20'  

Dump ship's entire track history

sailing weather and tide predictions

Greta — WDF3298 — position and weather